Nearby METAR Reports

 

ENCN - Kristiansand/Kje, Norway
Distance from station: Pn 17km
Aktualizacja: 10/04/2020 10:20
Few Clouds
Few Clouds
 Wiatr z calm
Wiatr: Cisza
Temperatura: 6°C
Punkt Rosy: -3°C
Wilgotność: 53%
Ciśnienie: 1026 hPa
Clouds: Few Clouds
Visibility: 10 km
Cloud details: Few Clouds 4267 m
2020/04/10 08:20 ENCN 100820Z AUTO 00000KT 9999 FEW140/// 06/M03 Q1026
EKSN - Sindal Airport, Denmark
Distance from station: WsPdWs 145km
Aktualizacja: 08/04/2020 14:50
NOT Current
Bezchmurnie
Bezchmurnie
 Wiatr z ZdPdZa
Wiatr: ZdPdZa 37 km/h
Temperatura: 16°C
Punkt Rosy: 2°C
Wilgotność: 39%
Ciśnienie: 1023 hPa
Podsumowanie: Bezchmurnie
Visibility: greater than 10 km
2020/04/08 12:50 EKSN 081250Z 25020KT CAVOK 16/02 Q1023
 
EKYT - Alborg, Denmark
Distance from station: PdWs 153km
Aktualizacja: 10/04/2020 10:20
Few Clouds
Few Clouds
 Wiatr z ZdPnZd
Wiatr: ZdPnZd 11 km/h
Temperatura: 7°C
Wind Chill: 5°C
Punkt Rosy: 3°C
Wilgotność: 76%
Ciśnienie: 1026 hPa
Clouds: Few Clouds
Visibility: 10 km
Cloud details: Few Clouds 5182 m
2020/04/10 08:20 EKYT 100820Z AUTO 29006KT 9999 FEW170/// 07/03 Q1026
ENSN - Skien/Geiterygge, Norway
Distance from station: PnWs 153km
Aktualizacja: 09/11/2015 09:50
NOT Current
Bezchmurnie
Bezchmurnie
 Wiatr z PdPdZd
Wiatr: PdPdZd 19 km/h, Poryw: 41 km/h
Temperatura: 7°C
Wind Chill: 4°C
Punkt Rosy: 3°C
Wilgotność: 76%
Ciśnienie: 1000 hPa
Podsumowanie: Bezchmurnie
Visibility: greater than 10 km
2015/11/09 08:50 ENSN 090850Z 20010G22KT 150V240 CAVOK 07/03 Q1000
 
ENZV - Stavanger/Sola(A, Norway
Distance from station: PnZd 166km
Aktualizacja: 10/04/2020 10:20
Przeważnie pochmurno
Przeważnie pochmurno
 Wiatr z PnPnZd
Wiatr: PnPnZd 17 km/h
Temperatura: 6°C
Wind Chill: 3°C
Punkt Rosy: -3°C
Wilgotność: 53%
Ciśnienie: 1028 hPa
Clouds: Przeważnie pochmurno
Visibility: 10 km
Cloud details: Przeważnie pochmurno 1219 m
2020/04/10 08:20 ENZV 100820Z 34009KT 310V020 9999 BKN040 06/M03 Q1028 NOSIG
ENNO - Notodden, Norway
Distance from station: PnPnZd 182km
Aktualizacja: 06/04/2020 11:50
NOT Current
Nearby showers, Częściowe zachmurzenie
Nearby showers, Częściowe zachmurzenie
 Wiatr z Zd
Wiatr: Zd 6 km/h
Temperatura: 7°C
Punkt Rosy: 2°C
Wilgotność: 71%
Ciśnienie: 1021 hPa
Podsumowanie: Nearby Showers
Clouds: Częściowe zachmurzenie
Visibility: 10 km
Cloud details: Częściowe zachmurzenie 853 m
2020/04/06 09:50 ENNO 060950Z 27003KT 9999 VCSH SCT028 07/02 Q1021
 
ENTO - Torp (civ/Nor-Af, Norway
Distance from station: PnWs 183km
Aktualizacja: 10/04/2020 10:20
Bezchmurnie
Bezchmurnie
 Wiatr z Pn
Wiatr: Pn 15 km/h
Temperatura: 6°C
Wind Chill: 3°C
Punkt Rosy: -7°C
Wilgotność: 39%
Ciśnienie: 1025 hPa
Podsumowanie: Bezchmurnie
Visibility: greater than 10 km
2020/04/10 08:20 ENTO 100820Z 01008KT 340V070 CAVOK 06/M07 Q1025 NOSIG
EKKA - Karup (dan-Afb), Denmark
Distance from station: PdPdWs 209km
Aktualizacja: 10/04/2020 10:20
Przeważnie pochmurno
Przeważnie pochmurno
 Wiatr z ZdPnZd
Wiatr: ZdPnZd 26 km/h
Temperatura: 7°C
Wind Chill: 3°C
Punkt Rosy: 0°C
Wilgotność: 61%
Ciśnienie: 1027 hPa
Clouds: Przeważnie pochmurno
Visibility: 10 km
Cloud details: Few Clouds 732 m
Przeważnie pochmurno 4572 m
2020/04/10 08:20 EKKA 100820Z AUTO 29014KT 9999 FEW024/// BKN150/// 07/00 Q1027
 
ENHD - Haugesund/Karmoy, Norway
Distance from station: PnZd 216km
Aktualizacja: 10/04/2020 10:20
Przeważnie pochmurno
Przeważnie pochmurno
 Wiatr z Pn
Wiatr: Pn 11 km/h
Temperatura: 6°C
Wind Chill: 4°C
Punkt Rosy: -2°C
Wilgotność: 57%
Ciśnienie: 1028 hPa
Clouds: Przeważnie pochmurno
Visibility: 10 km
Cloud details: Przeważnie pochmurno 3658 m
2020/04/10 08:20 ENHD 100820Z AUTO 36006KT 320V020 9999 BKN120/// 06/M02 Q1028
ENRY - Rygge (nor-Afb), Norway
Distance from station: PnWs 216km
Aktualizacja: 10/04/2020 07:50
NOT Current
Przeważnie pochmurno
Przeważnie pochmurno
 Wiatr z varies
Wiatr: varies 2 km/h
Temperatura: 0°C
Punkt Rosy: -4°C
Wilgotność: 75%
Ciśnienie: 1026 hPa
Clouds: Przeważnie pochmurno
Visibility: 10 km
Cloud details: Few Clouds 3658 m
Przeważnie pochmurno 4572 m
2020/04/10 05:50 ENRY 100550Z AUTO VRB01KT 9999NDV FEW120/// BKN150/// 00/M04 Q1026
 
ESGP - Goteborg/Save (a, Sweden
Distance from station: Ws 230km
Aktualizacja: 02/01/2017 11:20
NOT Current
Bezchmurnie
Bezchmurnie
 Wiatr z calm
Wiatr: Cisza
Temperatura: -2°C
Punkt Rosy: -4°C
Wilgotność: 86%
Ciśnienie: 1012 hPa
Clouds: Bezchmurnie
Visibility: 10 km
2017/01/02 10:20 ESGP 021020Z AUTO 00000KT 9999 NCD M02/M04 Q1012
EKVJ - Stauning Airport, Denmark
Distance from station: Pd 233km
Aktualizacja: 10/04/2020 09:50
Przeważnie pochmurno
Przeważnie pochmurno
 Wiatr z PnZd
Wiatr: PnZd 22 km/h
Temperatura: 7°C
Wind Chill: 4°C
Punkt Rosy: 4°C
Wilgotność: 81%
Ciśnienie: 1027 hPa
Clouds: Przeważnie pochmurno
Visibility: 10 km
Cloud details: Częściowe zachmurzenie 762 m
Przeważnie pochmurno 7620 m
2020/04/10 07:50 EKVJ 100750Z 31012KT 9999 SCT025 BKN250 07/04 Q1027
 
ENSO - Stord/Soerstokke, Norway
Distance from station: PnZd 246km
Aktualizacja: 07/04/2020 14:50
NOT Current
Few Clouds
Few Clouds
 Wiatr z Pd
Wiatr: Pd 17 km/h
Temperatura: 11°C
Punkt Rosy: 3°C
Wilgotność: 58%
Ciśnienie: 1029 hPa
Clouds: Few Clouds
Visibility: 10 km
Cloud details: Few Clouds 914 m
2020/04/07 12:50 ENSO 071250Z 19009KT 140V260 9999 FEW030 11/03 Q1029
EKAH - Tirstrup (civ/Mi, Denmark
Distance from station: PdWs 252km
Aktualizacja: 10/04/2020 10:20
Bezchmurnie
Bezchmurnie
 Wiatr z ZdPnZd
Wiatr: ZdPnZd 17 km/h
Temperatura: 7°C
Wind Chill: 4°C
Punkt Rosy: 1°C
Wilgotność: 66%
Ciśnienie: 1026 hPa
Clouds: Bezchmurnie
Visibility: 10 km
2020/04/10 08:20 EKAH 100820Z AUTO 29009KT 9999NDV NCD 07/01 Q1026
 
ESGT - Trollhattan (pvt, Sweden
Distance from station: Ws 255km
Aktualizacja: 10/04/2020 10:20
Pochmurno
Pochmurno
 Wiatr z calm
Wiatr: Cisza
Temperatura: 5°C
Punkt Rosy: -1°C
Wilgotność: 66%
Ciśnienie: 1025 hPa
Clouds: Pochmurno
Visibility: 10 km
Cloud details: Przeważnie pochmurno 3658 m
Pochmurno 5791 m
2020/04/10 08:20 ESGT 100820Z AUTO 00000KT 9999 BKN120/// OVC190/// 05/M01 Q1025
ESGG - Goteborg/Landvet, Sweden
Distance from station: Ws 257km
Aktualizacja: 10/04/2020 10:20
Bezchmurnie
Bezchmurnie
 Wiatr z PdZd
Wiatr: PdZd 11 km/h
Temperatura: 7°C
Wind Chill: 5°C
Punkt Rosy: 0°C
Wilgotność: 61%
Ciśnienie: 1024 hPa
Podsumowanie: Bezchmurnie
Visibility: greater than 10 km
2020/04/10 08:20 ESGG 100820Z 22006KT CAVOK 07/M00 Q1024
 
EKBI - Billund Airport, Denmark
Distance from station: PdPdWs 269km
Aktualizacja: 10/04/2020 10:20
Few Clouds
Few Clouds
 Wiatr z ZdPnZd
Wiatr: ZdPnZd 20 km/h
Temperatura: 6°C
Wind Chill: 2°C
Punkt Rosy: 0°C
Wilgotność: 66%
Ciśnienie: 1027 hPa
Clouds: Few Clouds
Visibility: 10 km
Cloud details: Few Clouds 671 m
2020/04/10 08:20 EKBI 100820Z AUTO 30011KT 270V330 9999 FEW022/// 06/00 Q1027
EKHN - Horns Rev B Heli, Denmark
Distance from station: Pd 274km
Aktualizacja: 09/08/2016 14:20
NOT Current
Few Clouds
Few Clouds
 Wiatr z ZdPnZd
Wiatr: ZdPnZd 50 km/h, Poryw: 72 km/h
Temperatura: 14°C
Punkt Rosy: 10°C
Wilgotność: 77%
Ciśnienie: 1018 hPa
Clouds: Few Clouds
Visibility: 10 km
Cloud details: Few Clouds 1158 m
Few Clouds 2438 m
2016/08/09 12:20 EKHN 091220Z AUTO 29027G39KT 270V340 9999NDV FEW038/// FEW080/// 14/10 Q1018
 
ESIB - Satenas (swe-Afb, Sweden
Distance from station: Ws 277km
Aktualizacja: 10/04/2020 10:20
Bezchmurnie
Bezchmurnie
 Wiatr z PdWs
Wiatr: PdWs 6 km/h
Temperatura: 7°C
Punkt Rosy: -1°C
Wilgotność: 57%
Ciśnienie: 1024 hPa
Clouds: Bezchmurnie
Visibility: 10 km
2020/04/10 08:20 ESIB 100820Z AUTO 13003KT 090V180 9999 NCD 07/M01 Q1024
EKHR - Horns Rev B Heli, Denmark
Distance from station: Pd 282km
Aktualizacja: 04/10/2016 06:20
NOT Current
Bezchmurnie
Bezchmurnie
 Wiatr z Ws
Wiatr: Ws 4 km/h
Temperatura: 11°C
Punkt Rosy: -49°C
Wilgotność: 0%
Ciśnienie: 1038 hPa
Clouds: Bezchmurnie
Visibility: 10 km
2016/10/04 04:20 EKHR 040420Z AUTO 08002KT 9999NDV NCD 11/M49 Q1038